sensor_id;sensor_type;location;lat;lon;timestamp;P1;durP1;ratioP1;P2;durP2;ratioP2
52031;SDS011;38044;45.148;39.604;2024-02-26T00:01:41;11.77;;;5.40;;
52031;SDS011;38044;45.148;39.604;2024-02-26T00:04:11;11.40;;;5.25;;
52031;SDS011;38044;45.148;39.604;2024-02-26T00:06:38;10.52;;;5.82;;
52031;SDS011;38044;45.148;39.604;2024-02-26T00:09:07;12.20;;;5.95;;
52031;SDS011;38044;45.148;39.604;2024-02-26T00:11:37;12.55;;;6.10;;
52031;SDS011;38044;45.148;39.604;2024-02-26T00:14:03;13.88;;;5.25;;
52031;SDS011;38044;45.148;39.604;2024-02-26T00:16:30;9.95;;;5.38;;
52031;SDS011;38044;45.148;39.604;2024-02-26T00:18:56;10.20;;;6.03;;
52031;SDS011;38044;45.148;39.604;2024-02-26T00:21:22;8.60;;;5.00;;
52031;SDS011;38044;45.148;39.604;2024-02-26T00:23:52;9.98;;;5.93;;
52031;SDS011;38044;45.148;39.604;2024-02-26T00:26:18;13.93;;;5.32;;
52031;SDS011;38044;45.148;39.604;2024-02-26T00:28:45;11.50;;;5.70;;
52031;SDS011;38044;45.148;39.604;2024-02-26T00:31:11;10.40;;;5.72;;
52031;SDS011;38044;45.148;39.604;2024-02-26T00:33:37;9.07;;;5.72;;
52031;SDS011;38044;45.148;39.604;2024-02-26T00:36:03;9.82;;;5.22;;
52031;SDS011;38044;45.148;39.604;2024-02-26T00:38:30;11.40;;;6.35;;
52031;SDS011;38044;45.148;39.604;2024-02-26T00:40:56;11.10;;;5.50;;
52031;SDS011;38044;45.148;39.604;2024-02-26T00:43:21;8.30;;;4.93;;
52031;SDS011;38044;45.148;39.604;2024-02-26T00:45:47;8.32;;;5.30;;
52031;SDS011;38044;45.148;39.604;2024-02-26T00:48:13;14.15;;;6.40;;
52031;SDS011;38044;45.148;39.604;2024-02-26T00:50:39;12.30;;;6.15;;
52031;SDS011;38044;45.148;39.604;2024-02-26T00:53:05;12.27;;;6.80;;
52031;SDS011;38044;45.148;39.604;2024-02-26T00:55:31;12.63;;;6.28;;
52031;SDS011;38044;45.148;39.604;2024-02-26T00:57:57;14.63;;;7.07;;
52031;SDS011;38044;45.148;39.604;2024-02-26T01:00:23;11.15;;;6.57;;
52031;SDS011;38044;45.148;39.604;2024-02-26T01:02:49;11.00;;;5.38;;
52031;SDS011;38044;45.148;39.604;2024-02-26T01:05:15;17.40;;;6.97;;
52031;SDS011;38044;45.148;39.604;2024-02-26T01:07:41;15.48;;;6.72;;
52031;SDS011;38044;45.148;39.604;2024-02-26T01:10:07;11.52;;;6.05;;
52031;SDS011;38044;45.148;39.604;2024-02-26T01:12:34;10.98;;;6.18;;
52031;SDS011;38044;45.148;39.604;2024-02-26T01:15:03;10.25;;;6.38;;
52031;SDS011;38044;45.148;39.604;2024-02-26T01:17:29;14.98;;;7.07;;
52031;SDS011;38044;45.148;39.604;2024-02-26T01:19:56;12.88;;;6.28;;
52031;SDS011;38044;45.148;39.604;2024-02-26T01:22:22;13.63;;;7.43;;
52031;SDS011;38044;45.148;39.604;2024-02-26T01:24:48;13.15;;;5.60;;
52031;SDS011;38044;45.148;39.604;2024-02-26T01:27:14;12.93;;;6.70;;
52031;SDS011;38044;45.148;39.604;2024-02-26T01:29:41;10.55;;;6.43;;
52031;SDS011;38044;45.148;39.604;2024-02-26T01:32:07;13.05;;;7.07;;
52031;SDS011;38044;45.148;39.604;2024-02-26T01:34:33;13.20;;;7.45;;
52031;SDS011;38044;45.148;39.604;2024-02-26T01:36:59;14.48;;;8.18;;
52031;SDS011;38044;45.148;39.604;2024-02-26T01:39:26;15.75;;;7.72;;
52031;SDS011;38044;45.148;39.604;2024-02-26T01:41:54;12.48;;;6.82;;
52031;SDS011;38044;45.148;39.604;2024-02-26T01:44:20;12.43;;;7.25;;
52031;SDS011;38044;45.148;39.604;2024-02-26T01:46:46;15.75;;;7.15;;
52031;SDS011;38044;45.148;39.604;2024-02-26T01:49:13;15.85;;;7.38;;
52031;SDS011;38044;45.148;39.604;2024-02-26T01:51:40;12.48;;;7.63;;
52031;SDS011;38044;45.148;39.604;2024-02-26T01:54:08;15.57;;;8.90;;
52031;SDS011;38044;45.148;39.604;2024-02-26T01:56:35;13.80;;;7.88;;
52031;SDS011;38044;45.148;39.604;2024-02-26T01:59:01;14.82;;;7.68;;
52031;SDS011;38044;45.148;39.604;2024-02-26T02:01:29;13.38;;;8.00;;
52031;SDS011;38044;45.148;39.604;2024-02-26T02:03:57;12.35;;;7.38;;
52031;SDS011;38044;45.148;39.604;2024-02-26T02:06:24;14.68;;;7.97;;
52031;SDS011;38044;45.148;39.604;2024-02-26T02:08:52;10.43;;;6.72;;
52031;SDS011;38044;45.148;39.604;2024-02-26T02:11:19;16.02;;;6.85;;
52031;SDS011;38044;45.148;39.604;2024-02-26T02:13:44;13.13;;;7.43;;
52031;SDS011;38044;45.148;39.604;2024-02-26T02:16:11;15.55;;;7.38;;
52031;SDS011;38044;45.148;39.604;2024-02-26T02:18:37;13.65;;;7.15;;
52031;SDS011;38044;45.148;39.604;2024-02-26T02:21:03;11.60;;;6.05;;
52031;SDS011;38044;45.148;39.604;2024-02-26T02:23:29;10.65;;;6.15;;
52031;SDS011;38044;45.148;39.604;2024-02-26T02:25:56;12.90;;;7.32;;
52031;SDS011;38044;45.148;39.604;2024-02-26T02:28:23;13.48;;;6.90;;
52031;SDS011;38044;45.148;39.604;2024-02-26T02:30:51;12.27;;;7.82;;
52031;SDS011;38044;45.148;39.604;2024-02-26T02:33:17;12.20;;;7.78;;
52031;SDS011;38044;45.148;39.604;2024-02-26T02:35:43;13.13;;;7.03;;
52031;SDS011;38044;45.148;39.604;2024-02-26T02:38:09;10.73;;;6.82;;
52031;SDS011;38044;45.148;39.604;2024-02-26T02:40:35;12.10;;;6.30;;
52031;SDS011;38044;45.148;39.604;2024-02-26T02:43:01;12.85;;;6.43;;
52031;SDS011;38044;45.148;39.604;2024-02-26T02:45:28;12.07;;;7.15;;
52031;SDS011;38044;45.148;39.604;2024-02-26T02:47:54;13.25;;;7.88;;
52031;SDS011;38044;45.148;39.604;2024-02-26T02:50:20;12.65;;;6.47;;
52031;SDS011;38044;45.148;39.604;2024-02-26T02:52:45;10.93;;;7.38;;
52031;SDS011;38044;45.148;39.604;2024-02-26T02:55:12;11.90;;;7.13;;
52031;SDS011;38044;45.148;39.604;2024-02-26T02:57:38;10.50;;;6.00;;
52031;SDS011;38044;45.148;39.604;2024-02-26T03:00:09;13.45;;;7.18;;
52031;SDS011;38044;45.148;39.604;2024-02-26T03:02:36;13.95;;;8.20;;
52031;SDS011;38044;45.148;39.604;2024-02-26T03:05:02;13.40;;;8.23;;
52031;SDS011;38044;45.148;39.604;2024-02-26T03:07:29;13.68;;;8.32;;
52031;SDS011;38044;45.148;39.604;2024-02-26T03:09:55;15.50;;;8.15;;
52031;SDS011;38044;45.148;39.604;2024-02-26T03:12:21;16.15;;;9.57;;
52031;SDS011;38044;45.148;39.604;2024-02-26T03:14:47;14.80;;;9.48;;
52031;SDS011;38044;45.148;39.604;2024-02-26T03:17:13;15.77;;;9.23;;
52031;SDS011;38044;45.148;39.604;2024-02-26T03:19:39;15.95;;;9.45;;
52031;SDS011;38044;45.148;39.604;2024-02-26T03:22:04;16.35;;;9.45;;
52031;SDS011;38044;45.148;39.604;2024-02-26T03:24:30;14.85;;;8.60;;
52031;SDS011;38044;45.148;39.604;2024-02-26T03:26:56;14.98;;;7.80;;
52031;SDS011;38044;45.148;39.604;2024-02-26T03:29:22;12.00;;;8.07;;
52031;SDS011;38044;45.148;39.604;2024-02-26T03:31:48;14.35;;;8.23;;
52031;SDS011;38044;45.148;39.604;2024-02-26T03:34:14;15.13;;;8.30;;
52031;SDS011;38044;45.148;39.604;2024-02-26T03:36:40;13.23;;;7.68;;
52031;SDS011;38044;45.148;39.604;2024-02-26T03:39:07;14.60;;;7.65;;
52031;SDS011;38044;45.148;39.604;2024-02-26T03:41:33;12.27;;;6.80;;
52031;SDS011;38044;45.148;39.604;2024-02-26T03:44:00;14.27;;;7.63;;
52031;SDS011;38044;45.148;39.604;2024-02-26T03:46:26;13.20;;;8.77;;
52031;SDS011;38044;45.148;39.604;2024-02-26T03:48:52;18.60;;;8.98;;
52031;SDS011;38044;45.148;39.604;2024-02-26T03:51:18;16.13;;;9.98;;
52031;SDS011;38044;45.148;39.604;2024-02-26T03:53:44;14.88;;;8.32;;
52031;SDS011;38044;45.148;39.604;2024-02-26T03:56:11;15.63;;;7.85;;
52031;SDS011;38044;45.148;39.604;2024-02-26T03:58:40;15.88;;;9.80;;
52031;SDS011;38044;45.148;39.604;2024-02-26T04:01:07;15.15;;;7.85;;
52031;SDS011;38044;45.148;39.604;2024-02-26T04:03:34;14.50;;;9.30;;
52031;SDS011;38044;45.148;39.604;2024-02-26T04:06:00;16.33;;;8.52;;
52031;SDS011;38044;45.148;39.604;2024-02-26T04:08:26;15.90;;;9.48;;
52031;SDS011;38044;45.148;39.604;2024-02-26T04:10:52;13.63;;;7.88;;
52031;SDS011;38044;45.148;39.604;2024-02-26T04:13:18;9.55;;;6.78;;
52031;SDS011;38044;45.148;39.604;2024-02-26T04:15:43;12.98;;;7.00;;
52031;SDS011;38044;45.148;39.604;2024-02-26T04:18:10;14.35;;;8.82;;
52031;SDS011;38044;45.148;39.604;2024-02-26T04:20:35;14.48;;;8.98;;
52031;SDS011;38044;45.148;39.604;2024-02-26T04:23:02;15.63;;;8.68;;
52031;SDS011;38044;45.148;39.604;2024-02-26T04:25:28;14.15;;;8.80;;
52031;SDS011;38044;45.148;39.604;2024-02-26T04:27:54;14.23;;;8.23;;
52031;SDS011;38044;45.148;39.604;2024-02-26T04:30:20;15.00;;;8.35;;
52031;SDS011;38044;45.148;39.604;2024-02-26T04:32:46;12.95;;;7.68;;
52031;SDS011;38044;45.148;39.604;2024-02-26T04:35:12;18.80;;;8.35;;
52031;SDS011;38044;45.148;39.604;2024-02-26T04:37:38;11.88;;;7.40;;
52031;SDS011;38044;45.148;39.604;2024-02-26T04:40:04;11.10;;;6.85;;
52031;SDS011;38044;45.148;39.604;2024-02-26T04:42:31;11.07;;;6.95;;
52031;SDS011;38044;45.148;39.604;2024-02-26T04:44:58;16.67;;;7.50;;
52031;SDS011;38044;45.148;39.604;2024-02-26T04:47:24;13.52;;;6.55;;
52031;SDS011;38044;45.148;39.604;2024-02-26T04:49:50;14.52;;;6.43;;
52031;SDS011;38044;45.148;39.604;2024-02-26T04:52:16;11.82;;;6.65;;
52031;SDS011;38044;45.148;39.604;2024-02-26T04:54:42;16.23;;;6.90;;
52031;SDS011;38044;45.148;39.604;2024-02-26T04:57:08;13.27;;;5.82;;
52031;SDS011;38044;45.148;39.604;2024-02-26T04:59:33;10.70;;;5.53;;
52031;SDS011;38044;45.148;39.604;2024-02-26T05:01:59;11.40;;;6.85;;
52031;SDS011;38044;45.148;39.604;2024-02-26T05:04:25;11.75;;;6.72;;
52031;SDS011;38044;45.148;39.604;2024-02-26T05:06:51;8.90;;;6.07;;
52031;SDS011;38044;45.148;39.604;2024-02-26T05:09:18;10.77;;;5.63;;
52031;SDS011;38044;45.148;39.604;2024-02-26T05:11:45;11.57;;;5.45;;
52031;SDS011;38044;45.148;39.604;2024-02-26T05:14:12;9.38;;;5.80;;
52031;SDS011;38044;45.148;39.604;2024-02-26T05:16:37;18.60;;;5.97;;
52031;SDS011;38044;45.148;39.604;2024-02-26T05:19:03;12.10;;;6.30;;
52031;SDS011;38044;45.148;39.604;2024-02-26T05:21:30;10.70;;;4.93;;
52031;SDS011;38044;45.148;39.604;2024-02-26T05:23:56;9.18;;;4.35;;
52031;SDS011;38044;45.148;39.604;2024-02-26T05:26:22;8.32;;;4.70;;
52031;SDS011;38044;45.148;39.604;2024-02-26T05:28:49;10.40;;;5.63;;
52031;SDS011;38044;45.148;39.604;2024-02-26T05:31:16;11.50;;;5.75;;
52031;SDS011;38044;45.148;39.604;2024-02-26T05:33:43;11.43;;;5.65;;
52031;SDS011;38044;45.148;39.604;2024-02-26T05:36:17;12.45;;;6.65;;
52031;SDS011;38044;45.148;39.604;2024-02-26T05:38:44;10.10;;;5.80;;
52031;SDS011;38044;45.148;39.604;2024-02-26T05:41:11;11.43;;;5.13;;
52031;SDS011;38044;45.148;39.604;2024-02-26T05:43:37;6.78;;;4.93;;
52031;SDS011;38044;45.148;39.604;2024-02-26T05:46:03;9.80;;;5.55;;
52031;SDS011;38044;45.148;39.604;2024-02-26T05:48:29;8.63;;;5.18;;
52031;SDS011;38044;45.148;39.604;2024-02-26T05:50:57;13.63;;;4.40;;
52031;SDS011;38044;45.148;39.604;2024-02-26T05:53:23;10.57;;;4.63;;
52031;SDS011;38044;45.148;39.604;2024-02-26T05:55:49;8.45;;;4.97;;
52031;SDS011;38044;45.148;39.604;2024-02-26T05:58:15;12.13;;;5.10;;
52031;SDS011;38044;45.148;39.604;2024-02-26T06:00:41;7.10;;;4.13;;
52031;SDS011;38044;45.148;39.604;2024-02-26T06:03:07;7.55;;;4.57;;
52031;SDS011;38044;45.148;39.604;2024-02-26T06:05:33;9.27;;;4.57;;
52031;SDS011;38044;45.148;39.604;2024-02-26T06:07:58;5.18;;;4.20;;
52031;SDS011;38044;45.148;39.604;2024-02-26T06:10:24;9.52;;;4.25;;
52031;SDS011;38044;45.148;39.604;2024-02-26T06:12:50;8.63;;;4.68;;
52031;SDS011;38044;45.148;39.604;2024-02-26T06:15:16;7.30;;;3.70;;
52031;SDS011;38044;45.148;39.604;2024-02-26T06:17:42;17.23;;;6.38;;
52031;SDS011;38044;45.148;39.604;2024-02-26T06:20:08;7.30;;;4.10;;
52031;SDS011;38044;45.148;39.604;2024-02-26T06:22:38;12.52;;;5.28;;
52031;SDS011;38044;45.148;39.604;2024-02-26T06:25:08;7.30;;;4.20;;
52031;SDS011;38044;45.148;39.604;2024-02-26T06:27:34;8.63;;;5.07;;
52031;SDS011;38044;45.148;39.604;2024-02-26T06:30:01;11.70;;;5.05;;
52031;SDS011;38044;45.148;39.604;2024-02-26T06:32:27;7.97;;;5.03;;
52031;SDS011;38044;45.148;39.604;2024-02-26T06:34:54;11.75;;;5.15;;
52031;SDS011;38044;45.148;39.604;2024-02-26T06:37:20;9.32;;;6.05;;
52031;SDS011;38044;45.148;39.604;2024-02-26T06:39:46;10.10;;;5.57;;
52031;SDS011;38044;45.148;39.604;2024-02-26T06:42:13;10.13;;;5.57;;
52031;SDS011;38044;45.148;39.604;2024-02-26T06:44:39;29.63;;;12.75;;
52031;SDS011;38044;45.148;39.604;2024-02-26T06:47:05;10.52;;;5.35;;
52031;SDS011;38044;45.148;39.604;2024-02-26T06:49:31;12.02;;;5.50;;
52031;SDS011;38044;45.148;39.604;2024-02-26T06:51:57;58.88;;;7.20;;
52031;SDS011;38044;45.148;39.604;2024-02-26T07:17:01;8.68;;;5.55;;
52031;SDS011;38044;45.148;39.604;2024-02-26T07:19:27;9.30;;;4.90;;
52031;SDS011;38044;45.148;39.604;2024-02-26T07:21:53;7.72;;;5.45;;
52031;SDS011;38044;45.148;39.604;2024-02-26T07:24:19;8.50;;;6.03;;
52031;SDS011;38044;45.148;39.604;2024-02-26T07:26:45;10.95;;;5.03;;
52031;SDS011;38044;45.148;39.604;2024-02-26T07:29:11;5.80;;;4.15;;
52031;SDS011;38044;45.148;39.604;2024-02-26T07:31:36;14.70;;;4.15;;
52031;SDS011;38044;45.148;39.604;2024-02-26T07:34:02;10.35;;;4.85;;
52031;SDS011;38044;45.148;39.604;2024-02-26T07:36:28;11.60;;;5.22;;
52031;SDS011;38044;45.148;39.604;2024-02-26T07:38:54;17.25;;;7.53;;
52031;SDS011;38044;45.148;39.604;2024-02-26T07:41:20;11.80;;;5.18;;
52031;SDS011;38044;45.148;39.604;2024-02-26T07:43:46;8.77;;;4.47;;
52031;SDS011;38044;45.148;39.604;2024-02-26T07:46:12;5.35;;;4.20;;
52031;SDS011;38044;45.148;39.604;2024-02-26T07:48:38;7.00;;;4.10;;
52031;SDS011;38044;45.148;39.604;2024-02-26T07:51:04;10.27;;;4.78;;
52031;SDS011;38044;45.148;39.604;2024-02-26T07:53:30;13.57;;;5.50;;
52031;SDS011;38044;45.148;39.604;2024-02-26T07:55:56;9.23;;;4.80;;
52031;SDS011;38044;45.148;39.604;2024-02-26T07:58:23;11.85;;;5.68;;
52031;SDS011;38044;45.148;39.604;2024-02-26T08:00:49;11.00;;;5.65;;
52031;SDS011;38044;45.148;39.604;2024-02-26T08:03:15;9.23;;;4.03;;
52031;SDS011;38044;45.148;39.604;2024-02-26T08:05:41;7.90;;;4.50;;
52031;SDS011;38044;45.148;39.604;2024-02-26T08:08:08;11.07;;;4.90;;
52031;SDS011;38044;45.148;39.604;2024-02-26T08:10:34;12.93;;;5.03;;
52031;SDS011;38044;45.148;39.604;2024-02-26T08:13:00;7.90;;;4.25;;
52031;SDS011;38044;45.148;39.604;2024-02-26T08:15:33;8.98;;;4.25;;
52031;SDS011;38044;45.148;39.604;2024-02-26T08:18:03;8.80;;;4.88;;
52031;SDS011;38044;45.148;39.604;2024-02-26T08:20:29;9.32;;;4.22;;
52031;SDS011;38044;45.148;39.604;2024-02-26T08:22:56;6.70;;;4.60;;
52031;SDS011;38044;45.148;39.604;2024-02-26T08:25:22;6.25;;;4.30;;
52031;SDS011;38044;45.148;39.604;2024-02-26T08:27:49;85.78;;;9.02;;
52031;SDS011;38044;45.148;39.604;2024-02-26T08:30:15;10.02;;;5.70;;
52031;SDS011;38044;45.148;39.604;2024-02-26T08:32:45;6.03;;;4.47;;
52031;SDS011;38044;45.148;39.604;2024-02-26T08:35:12;15.73;;;5.75;;
52031;SDS011;38044;45.148;39.604;2024-02-26T08:37:39;25.65;;;9.68;;
52031;SDS011;38044;45.148;39.604;2024-02-26T08:40:05;13.63;;;8.30;;
52031;SDS011;38044;45.148;39.604;2024-02-26T08:42:32;11.27;;;7.13;;
52031;SDS011;38044;45.148;39.604;2024-02-26T08:44:58;9.20;;;6.32;;
52031;SDS011;38044;45.148;39.604;2024-02-26T08:47:26;7.80;;;6.03;;
52031;SDS011;38044;45.148;39.604;2024-02-26T08:49:53;7.50;;;4.93;;
52031;SDS011;38044;45.148;39.604;2024-02-26T08:52:19;7.15;;;4.72;;
52031;SDS011;38044;45.148;39.604;2024-02-26T08:54:45;6.40;;;4.47;;
52031;SDS011;38044;45.148;39.604;2024-02-26T08:57:11;7.22;;;4.43;;
52031;SDS011;38044;45.148;39.604;2024-02-26T08:59:37;6.03;;;4.53;;
52031;SDS011;38044;45.148;39.604;2024-02-26T09:02:02;7.53;;;3.95;;
52031;SDS011;38044;45.148;39.604;2024-02-26T09:04:28;5.95;;;3.50;;
52031;SDS011;38044;45.148;39.604;2024-02-26T09:06:54;7.32;;;4.00;;
52031;SDS011;38044;45.148;39.604;2024-02-26T09:09:20;8.88;;;4.32;;
52031;SDS011;38044;45.148;39.604;2024-02-26T09:11:47;6.35;;;4.45;;
52031;SDS011;38044;45.148;39.604;2024-02-26T09:14:17;9.43;;;4.75;;
52031;SDS011;38044;45.148;39.604;2024-02-26T09:16:43;5.60;;;4.00;;
52031;SDS011;38044;45.148;39.604;2024-02-26T09:19:09;7.63;;;4.07;;
52031;SDS011;38044;45.148;39.604;2024-02-26T09:21:35;7.05;;;4.45;;
52031;SDS011;38044;45.148;39.604;2024-02-26T09:24:01;9.88;;;4.63;;
52031;SDS011;38044;45.148;39.604;2024-02-26T09:26:27;5.35;;;3.40;;
52031;SDS011;38044;45.148;39.604;2024-02-26T09:28:53;9.20;;;4.57;;
52031;SDS011;38044;45.148;39.604;2024-02-26T09:31:19;8.48;;;4.22;;
52031;SDS011;38044;45.148;39.604;2024-02-26T09:33:44;6.75;;;4.15;;
52031;SDS011;38044;45.148;39.604;2024-02-26T09:36:11;8.68;;;4.32;;
52031;SDS011;38044;45.148;39.604;2024-02-26T09:38:37;9.05;;;4.30;;
52031;SDS011;38044;45.148;39.604;2024-02-26T09:41:06;5.30;;;3.88;;
52031;SDS011;38044;45.148;39.604;2024-02-26T09:43:35;7.15;;;4.13;;
52031;SDS011;38044;45.148;39.604;2024-02-26T09:46:01;7.68;;;4.57;;
52031;SDS011;38044;45.148;39.604;2024-02-26T09:48:28;5.05;;;3.90;;
52031;SDS011;38044;45.148;39.604;2024-02-26T09:50:55;5.95;;;3.80;;
52031;SDS011;38044;45.148;39.604;2024-02-26T09:53:21;7.68;;;4.60;;
52031;SDS011;38044;45.148;39.604;2024-02-26T09:55:47;6.32;;;3.88;;
52031;SDS011;38044;45.148;39.604;2024-02-26T09:58:13;6.80;;;4.88;;
52031;SDS011;38044;45.148;39.604;2024-02-26T10:00:44;6.78;;;4.53;;
52031;SDS011;38044;45.148;39.604;2024-02-26T10:03:17;8.30;;;4.53;;
52031;SDS011;38044;45.148;39.604;2024-02-26T10:05:46;9.35;;;5.15;;
52031;SDS011;38044;45.148;39.604;2024-02-26T10:08:14;9.25;;;5.13;;
52031;SDS011;38044;45.148;39.604;2024-02-26T10:10:40;10.50;;;5.50;;
52031;SDS011;38044;45.148;39.604;2024-02-26T10:13:06;9.80;;;5.45;;
52031;SDS011;38044;45.148;39.604;2024-02-26T10:15:35;7.57;;;4.75;;
52031;SDS011;38044;45.148;39.604;2024-02-26T10:18:05;7.55;;;4.78;;
52031;SDS011;38044;45.148;39.604;2024-02-26T10:20:31;8.18;;;4.45;;
52031;SDS011;38044;45.148;39.604;2024-02-26T10:22:58;12.55;;;5.80;;
52031;SDS011;38044;45.148;39.604;2024-02-26T10:25:28;8.68;;;4.13;;
52031;SDS011;38044;45.148;39.604;2024-02-26T10:27:53;9.52;;;4.90;;
52031;SDS011;38044;45.148;39.604;2024-02-26T10:30:21;10.10;;;5.50;;
52031;SDS011;38044;45.148;39.604;2024-02-26T10:32:50;11.05;;;6.63;;
52031;SDS011;38044;45.148;39.604;2024-02-26T10:35:17;16.30;;;10.05;;
52031;SDS011;38044;45.148;39.604;2024-02-26T10:37:43;13.77;;;4.88;;
52031;SDS011;38044;45.148;39.604;2024-02-26T10:40:10;6.68;;;4.50;;
52031;SDS011;38044;45.148;39.604;2024-02-26T10:42:37;6.55;;;4.35;;
52031;SDS011;38044;45.148;39.604;2024-02-26T10:45:04;9.77;;;5.20;;
52031;SDS011;38044;45.148;39.604;2024-02-26T10:47:34;10.45;;;3.97;;
52031;SDS011;38044;45.148;39.604;2024-02-26T10:50:05;7.88;;;4.38;;
52031;SDS011;38044;45.148;39.604;2024-02-26T10:52:32;7.35;;;4.68;;
52031;SDS011;38044;45.148;39.604;2024-02-26T10:55:00;6.80;;;4.45;;
52031;SDS011;38044;45.148;39.604;2024-02-26T10:57:38;7.82;;;4.13;;
52031;SDS011;38044;45.148;39.604;2024-02-26T11:00:06;7.63;;;3.70;;
52031;SDS011;38044;45.148;39.604;2024-02-26T11:02:35;6.45;;;3.70;;
52031;SDS011;38044;45.148;39.604;2024-02-26T11:05:02;9.82;;;4.40;;
52031;SDS011;38044;45.148;39.604;2024-02-26T11:07:32;10.30;;;3.80;;
52031;SDS011;38044;45.148;39.604;2024-02-26T11:09:59;15.52;;;4.75;;
52031;SDS011;38044;45.148;39.604;2024-02-26T11:12:27;9.93;;;4.22;;
52031;SDS011;38044;45.148;39.604;2024-02-26T11:14:55;11.05;;;3.95;;
52031;SDS011;38044;45.148;39.604;2024-02-26T11:17:27;12.45;;;5.30;;
52031;SDS011;38044;45.148;39.604;2024-02-26T11:22:28;10.43;;;5.30;;
52031;SDS011;38044;45.148;39.604;2024-02-26T11:24:54;9.15;;;4.47;;
52031;SDS011;38044;45.148;39.604;2024-02-26T11:27:36;11.35;;;5.00;;
52031;SDS011;38044;45.148;39.604;2024-02-26T11:30:08;10.52;;;5.32;;
52031;SDS011;38044;45.148;39.604;2024-02-26T11:53:26;8.20;;;3.80;;
52031;SDS011;38044;45.148;39.604;2024-02-26T11:59:04;9.85;;;3.83;;
52031;SDS011;38044;45.148;39.604;2024-02-26T12:01:42;7.10;;;4.20;;
52031;SDS011;38044;45.148;39.604;2024-02-26T12:04:19;6.03;;;3.80;;
52031;SDS011;38044;45.148;39.604;2024-02-26T12:06:57;8.75;;;3.83;;
52031;SDS011;38044;45.148;39.604;2024-02-26T12:09:39;9.35;;;3.72;;
52031;SDS011;38044;45.148;39.604;2024-02-26T12:12:09;7.10;;;2.90;;
52031;SDS011;38044;45.148;39.604;2024-02-26T12:14:39;6.60;;;2.97;;
52031;SDS011;38044;45.148;39.604;2024-02-26T12:17:19;18.08;;;3.72;;
52031;SDS011;38044;45.148;39.604;2024-02-26T12:19:46;5.22;;;2.22;;
52031;SDS011;38044;45.148;39.604;2024-02-26T12:22:15;7.95;;;2.50;;
52031;SDS011;38044;45.148;39.604;2024-02-26T12:24:41;4.88;;;2.53;;
52031;SDS011;38044;45.148;39.604;2024-02-26T12:27:08;9.10;;;3.17;;
52031;SDS011;38044;45.148;39.604;2024-02-26T12:29:34;6.85;;;2.67;;
52031;SDS011;38044;45.148;39.604;2024-02-26T12:32:00;8.15;;;2.60;;
52031;SDS011;38044;45.148;39.604;2024-02-26T12:34:27;14.43;;;3.50;;
52031;SDS011;38044;45.148;39.604;2024-02-26T12:36:54;6.05;;;2.42;;
52031;SDS011;38044;45.148;39.604;2024-02-26T12:39:20;4.35;;;2.15;;
52031;SDS011;38044;45.148;39.604;2024-02-26T12:41:46;6.00;;;2.92;;
52031;SDS011;38044;45.148;39.604;2024-02-26T12:44:16;9.63;;;3.55;;
52031;SDS011;38044;45.148;39.604;2024-02-26T12:46:42;13.63;;;3.72;;
52031;SDS011;38044;45.148;39.604;2024-02-26T12:49:08;6.88;;;3.25;;
52031;SDS011;38044;45.148;39.604;2024-02-26T12:51:39;6.13;;;2.95;;
52031;SDS011;38044;45.148;39.604;2024-02-26T12:54:07;4.10;;;2.72;;
52031;SDS011;38044;45.148;39.604;2024-02-26T12:56:34;4.45;;;2.28;;
52031;SDS011;38044;45.148;39.604;2024-02-26T12:59:00;19.52;;;3.17;;
52031;SDS011;38044;45.148;39.604;2024-02-26T13:01:27;7.32;;;2.22;;
52031;SDS011;38044;45.148;39.604;2024-02-26T13:03:54;5.68;;;2.47;;
52031;SDS011;38044;45.148;39.604;2024-02-26T13:06:20;8.88;;;3.17;;
52031;SDS011;38044;45.148;39.604;2024-02-26T13:08:49;4.57;;;2.13;;
52031;SDS011;38044;45.148;39.604;2024-02-26T13:11:21;4.55;;;2.03;;
52031;SDS011;38044;45.148;39.604;2024-02-26T13:13:47;6.32;;;2.00;;
52031;SDS011;38044;45.148;39.604;2024-02-26T13:16:14;6.53;;;2.63;;
52031;SDS011;38044;45.148;39.604;2024-02-26T13:18:40;8.25;;;2.00;;
52031;SDS011;38044;45.148;39.604;2024-02-26T13:21:13;6.30;;;2.80;;
52031;SDS011;38044;45.148;39.604;2024-02-26T13:23:43;12.95;;;3.13;;
52031;SDS011;38044;45.148;39.604;2024-02-26T13:26:13;6.60;;;2.20;;
52031;SDS011;38044;45.148;39.604;2024-02-26T13:28:40;9.68;;;2.90;;
52031;SDS011;38044;45.148;39.604;2024-02-26T13:31:06;53.35;;;4.30;;
52031;SDS011;38044;45.148;39.604;2024-02-26T13:33:33;9.32;;;4.22;;
52031;SDS011;38044;45.148;39.604;2024-02-26T13:35:59;7.95;;;2.30;;
52031;SDS011;38044;45.148;39.604;2024-02-26T13:38:26;5.22;;;2.40;;
52031;SDS011;38044;45.148;39.604;2024-02-26T13:40:53;92.53;;;6.35;;
52031;SDS011;38044;45.148;39.604;2024-02-26T13:43:20;5.75;;;1.98;;
52031;SDS011;38044;45.148;39.604;2024-02-26T13:45:46;3.25;;;1.90;;
52031;SDS011;38044;45.148;39.604;2024-02-26T13:48:12;6.22;;;1.70;;
52031;SDS011;38044;45.148;39.604;2024-02-26T13:50:39;7.22;;;1.77;;
52031;SDS011;38044;45.148;39.604;2024-02-26T13:53:06;6.05;;;1.98;;
52031;SDS011;38044;45.148;39.604;2024-02-26T13:55:32;20.85;;;3.03;;
52031;SDS011;38044;45.148;39.604;2024-02-26T13:57:58;7.90;;;3.03;;
52031;SDS011;38044;45.148;39.604;2024-02-26T14:00:28;5.45;;;1.90;;
52031;SDS011;38044;45.148;39.604;2024-02-26T14:02:59;3.75;;;1.55;;
52031;SDS011;38044;45.148;39.604;2024-02-26T14:05:26;3.63;;;1.75;;
52031;SDS011;38044;45.148;39.604;2024-02-26T14:07:52;9.57;;;2.55;;
52031;SDS011;38044;45.148;39.604;2024-02-26T14:10:19;4.97;;;2.10;;
52031;SDS011;38044;45.148;39.604;2024-02-26T14:12:46;4.82;;;1.73;;
52031;SDS011;38044;45.148;39.604;2024-02-26T14:15:11;14.52;;;2.20;;
52031;SDS011;38044;45.148;39.604;2024-02-26T14:17:37;8.70;;;2.00;;
52031;SDS011;38044;45.148;39.604;2024-02-26T14:20:03;7.63;;;2.55;;
52031;SDS011;38044;45.148;39.604;2024-02-26T14:22:30;9.07;;;2.28;;
52031;SDS011;38044;45.148;39.604;2024-02-26T14:24:56;16.30;;;2.90;;
52031;SDS011;38044;45.148;39.604;2024-02-26T14:27:22;7.25;;;2.42;;
52031;SDS011;38044;45.148;39.604;2024-02-26T14:29:49;5.03;;;1.65;;
52031;SDS011;38044;45.148;39.604;2024-02-26T14:32:15;6.60;;;1.60;;
52031;SDS011;38044;45.148;39.604;2024-02-26T14:34:41;6.50;;;1.60;;
52031;SDS011;38044;45.148;39.604;2024-02-26T14:37:07;6.15;;;2.00;;
52031;SDS011;38044;45.148;39.604;2024-02-26T14:39:33;4.43;;;1.88;;
52031;SDS011;38044;45.148;39.604;2024-02-26T14:41:59;6.55;;;2.00;;
52031;SDS011;38044;45.148;39.604;2024-02-26T14:44:26;4.72;;;2.47;;
52031;SDS011;38044;45.148;39.604;2024-02-26T14:46:52;4.80;;;2.30;;
52031;SDS011;38044;45.148;39.604;2024-02-26T14:49:18;4.25;;;1.95;;
52031;SDS011;38044;45.148;39.604;2024-02-26T14:51:44;5.35;;;1.67;;
52031;SDS011;38044;45.148;39.604;2024-02-26T14:54:11;7.32;;;1.98;;
52031;SDS011;38044;45.148;39.604;2024-02-26T14:56:37;7.75;;;2.28;;
52031;SDS011;38044;45.148;39.604;2024-02-26T14:59:03;4.78;;;1.95;;
52031;SDS011;38044;45.148;39.604;2024-02-26T15:01:29;3.35;;;1.20;;
52031;SDS011;38044;45.148;39.604;2024-02-26T15:03:55;6.72;;;2.13;;
52031;SDS011;38044;45.148;39.604;2024-02-26T15:06:22;14.98;;;2.33;;
52031;SDS011;38044;45.148;39.604;2024-02-26T15:08:48;8.75;;;1.90;;
52031;SDS011;38044;45.148;39.604;2024-02-26T15:11:14;8.32;;;1.75;;
52031;SDS011;38044;45.148;39.604;2024-02-26T15:13:40;10.68;;;2.20;;
52031;SDS011;38044;45.148;39.604;2024-02-26T15:16:07;7.57;;;1.73;;